sensor_id;sensor_type;location;lat;lon;timestamp;temperature;humidity
19610;DHT22;9952;47.122;-1.638;2022-08-05T00:03:29;19.10;99.90
19610;DHT22;9952;47.122;-1.638;2022-08-05T00:08:10;19.10;99.90
19610;DHT22;9952;47.122;-1.638;2022-08-05T00:12:51;19.00;99.90
19610;DHT22;9952;47.122;-1.638;2022-08-05T00:17:31;18.90;99.90
19610;DHT22;9952;47.122;-1.638;2022-08-05T00:22:12;18.90;99.90
19610;DHT22;9952;47.122;-1.638;2022-08-05T00:26:53;18.90;99.90
19610;DHT22;9952;47.122;-1.638;2022-08-05T00:31:34;18.80;99.90
19610;DHT22;9952;47.122;-1.638;2022-08-05T00:36:15;18.80;99.90
19610;DHT22;9952;47.122;-1.638;2022-08-05T00:40:57;18.70;99.90
19610;DHT22;9952;47.122;-1.638;2022-08-05T00:45:41;18.60;99.90
19610;DHT22;9952;47.122;-1.638;2022-08-05T00:50:23;18.60;99.90
19610;DHT22;9952;47.122;-1.638;2022-08-05T00:55:04;18.50;99.90
19610;DHT22;9952;47.122;-1.638;2022-08-05T00:59:46;18.50;99.90
19610;DHT22;9952;47.122;-1.638;2022-08-05T01:04:27;18.40;99.90
19610;DHT22;9952;47.122;-1.638;2022-08-05T01:09:08;18.40;99.90
19610;DHT22;9952;47.122;-1.638;2022-08-05T01:18:42;18.30;99.90
19610;DHT22;9952;47.122;-1.638;2022-08-05T01:33:12;18.20;99.90
19610;DHT22;9952;47.122;-1.638;2022-08-05T01:37:56;18.00;99.90
19610;DHT22;9952;47.122;-1.638;2022-08-05T01:42:38;18.00;99.90
19610;DHT22;9952;47.122;-1.638;2022-08-05T01:47:21;17.90;99.90
19610;DHT22;9952;47.122;-1.638;2022-08-05T01:52:03;17.90;99.90
19610;DHT22;9952;47.122;-1.638;2022-08-05T01:56:45;18.00;99.90
19610;DHT22;9952;47.122;-1.638;2022-08-05T02:01:27;17.90;99.90
19610;DHT22;9952;47.122;-1.638;2022-08-05T02:06:10;17.80;99.90
19610;DHT22;9952;47.122;-1.638;2022-08-05T02:10:55;17.70;99.90
19610;DHT22;9952;47.122;-1.638;2022-08-05T02:15:48;17.70;99.90
19610;DHT22;9952;47.122;-1.638;2022-08-05T02:20:35;17.60;99.90
19610;DHT22;9952;47.122;-1.638;2022-08-05T02:25:26;17.50;99.90
19610;DHT22;9952;47.122;-1.638;2022-08-05T02:30:09;17.50;99.90
19610;DHT22;9952;47.122;-1.638;2022-08-05T02:34:52;17.40;99.90
19610;DHT22;9952;47.122;-1.638;2022-08-05T02:39:35;17.40;99.90
19610;DHT22;9952;47.122;-1.638;2022-08-05T02:44:16;17.40;99.90
19610;DHT22;9952;47.122;-1.638;2022-08-05T02:48:59;17.30;99.90
19610;DHT22;9952;47.122;-1.638;2022-08-05T02:53:41;17.30;99.90
19610;DHT22;9952;47.122;-1.638;2022-08-05T02:58:22;17.30;99.90
19610;DHT22;9952;47.122;-1.638;2022-08-05T03:03:04;17.30;99.90
19610;DHT22;9952;47.122;-1.638;2022-08-05T03:07:46;17.30;99.90
19610;DHT22;9952;47.122;-1.638;2022-08-05T03:12:34;17.20;99.90
19610;DHT22;9952;47.122;-1.638;2022-08-05T03:17:16;17.20;99.90
19610;DHT22;9952;47.122;-1.638;2022-08-05T03:21:56;17.10;99.90
19610;DHT22;9952;47.122;-1.638;2022-08-05T03:26:37;17.00;99.90
19610;DHT22;9952;47.122;-1.638;2022-08-05T03:31:19;17.00;99.90
19610;DHT22;9952;47.122;-1.638;2022-08-05T03:36:00;17.00;99.90
19610;DHT22;9952;47.122;-1.638;2022-08-05T03:40:42;16.90;99.90
19610;DHT22;9952;47.122;-1.638;2022-08-05T03:45:23;16.90;99.90
19610;DHT22;9952;47.122;-1.638;2022-08-05T03:50:04;17.00;99.90
19610;DHT22;9952;47.122;-1.638;2022-08-05T03:54:51;16.80;99.90
19610;DHT22;9952;47.122;-1.638;2022-08-05T03:59:39;16.80;99.90
19610;DHT22;9952;47.122;-1.638;2022-08-05T04:04:22;16.80;99.90
19610;DHT22;9952;47.122;-1.638;2022-08-05T04:09:04;16.70;99.90
19610;DHT22;9952;47.122;-1.638;2022-08-05T04:13:46;16.60;99.90
19610;DHT22;9952;47.122;-1.638;2022-08-05T04:18:27;16.60;99.90
19610;DHT22;9952;47.122;-1.638;2022-08-05T04:23:09;16.60;99.90
19610;DHT22;9952;47.122;-1.638;2022-08-05T04:27:50;16.60;99.90
19610;DHT22;9952;47.122;-1.638;2022-08-05T04:32:31;16.50;99.90
19610;DHT22;9952;47.122;-1.638;2022-08-05T04:37:12;16.50;99.90
19610;DHT22;9952;47.122;-1.638;2022-08-05T04:41:53;16.40;99.90
19610;DHT22;9952;47.122;-1.638;2022-08-05T04:46:33;16.40;99.90
19610;DHT22;9952;47.122;-1.638;2022-08-05T04:51:14;16.30;99.90
19610;DHT22;9952;47.122;-1.638;2022-08-05T04:55:56;16.30;99.90
19610;DHT22;9952;47.122;-1.638;2022-08-05T05:00:38;16.30;99.90
19610;DHT22;9952;47.122;-1.638;2022-08-05T05:05:19;16.20;99.90
19610;DHT22;9952;47.122;-1.638;2022-08-05T05:10:00;16.30;99.90
19610;DHT22;9952;47.122;-1.638;2022-08-05T05:14:43;16.20;99.90
19610;DHT22;9952;47.122;-1.638;2022-08-05T05:19:24;16.20;99.90
19610;DHT22;9952;47.122;-1.638;2022-08-05T05:24:05;16.20;99.90
19610;DHT22;9952;47.122;-1.638;2022-08-05T05:28:46;16.20;99.90
19610;DHT22;9952;47.122;-1.638;2022-08-05T05:33:27;16.20;99.90
19610;DHT22;9952;47.122;-1.638;2022-08-05T05:38:07;16.20;99.90
19610;DHT22;9952;47.122;-1.638;2022-08-05T05:42:49;16.30;99.90
19610;DHT22;9952;47.122;-1.638;2022-08-05T05:47:30;16.30;99.90
19610;DHT22;9952;47.122;-1.638;2022-08-05T05:52:11;16.40;99.90
19610;DHT22;9952;47.122;-1.638;2022-08-05T05:56:51;16.30;99.90
19610;DHT22;9952;47.122;-1.638;2022-08-05T06:01:38;16.40;99.90
19610;DHT22;9952;47.122;-1.638;2022-08-05T06:06:19;16.50;99.90
19610;DHT22;9952;47.122;-1.638;2022-08-05T06:11:00;16.50;99.90
19610;DHT22;9952;47.122;-1.638;2022-08-05T06:15:41;16.60;99.90
19610;DHT22;9952;47.122;-1.638;2022-08-05T06:20:21;16.70;99.90
19610;DHT22;9952;47.122;-1.638;2022-08-05T06:25:03;16.80;99.90
19610;DHT22;9952;47.122;-1.638;2022-08-05T06:29:45;16.90;99.90
19610;DHT22;9952;47.122;-1.638;2022-08-05T06:34:25;17.10;99.90
19610;DHT22;9952;47.122;-1.638;2022-08-05T06:39:06;17.30;99.90
19610;DHT22;9952;47.122;-1.638;2022-08-05T06:43:48;17.40;99.90
19610;DHT22;9952;47.122;-1.638;2022-08-05T06:48:29;17.50;99.90
19610;DHT22;9952;47.122;-1.638;2022-08-05T06:53:10;17.70;99.90
19610;DHT22;9952;47.122;-1.638;2022-08-05T06:57:53;17.80;99.90
19610;DHT22;9952;47.122;-1.638;2022-08-05T07:02:41;17.90;99.90
19610;DHT22;9952;47.122;-1.638;2022-08-05T07:07:22;18.00;99.90
19610;DHT22;9952;47.122;-1.638;2022-08-05T07:12:03;18.10;99.90
19610;DHT22;9952;47.122;-1.638;2022-08-05T07:16:44;18.40;99.90
19610;DHT22;9952;47.122;-1.638;2022-08-05T07:21:30;18.50;99.90
19610;DHT22;9952;47.122;-1.638;2022-08-05T07:26:11;18.60;99.90
19610;DHT22;9952;47.122;-1.638;2022-08-05T07:30:52;18.80;99.90
19610;DHT22;9952;47.122;-1.638;2022-08-05T07:35:32;18.90;99.90
19610;DHT22;9952;47.122;-1.638;2022-08-05T07:40:13;19.00;99.90
19610;DHT22;9952;47.122;-1.638;2022-08-05T07:44:54;19.20;99.90
19610;DHT22;9952;47.122;-1.638;2022-08-05T07:49:35;19.20;99.90
19610;DHT22;9952;47.122;-1.638;2022-08-05T07:54:16;19.40;99.90
19610;DHT22;9952;47.122;-1.638;2022-08-05T07:58:57;19.60;99.90
19610;DHT22;9952;47.122;-1.638;2022-08-05T08:03:37;19.70;99.90
19610;DHT22;9952;47.122;-1.638;2022-08-05T08:08:19;19.80;99.90
19610;DHT22;9952;47.122;-1.638;2022-08-05T08:12:59;20.00;99.90
19610;DHT22;9952;47.122;-1.638;2022-08-05T08:17:40;20.10;99.90
19610;DHT22;9952;47.122;-1.638;2022-08-05T08:22:25;20.30;99.90
19610;DHT22;9952;47.122;-1.638;2022-08-05T08:27:06;20.50;99.90
19610;DHT22;9952;47.122;-1.638;2022-08-05T08:31:47;20.60;99.90
19610;DHT22;9952;47.122;-1.638;2022-08-05T08:36:28;20.60;99.90
19610;DHT22;9952;47.122;-1.638;2022-08-05T08:41:09;21.00;99.90
19610;DHT22;9952;47.122;-1.638;2022-08-05T08:45:53;21.40;99.90
19610;DHT22;9952;47.122;-1.638;2022-08-05T08:50:39;21.70;99.90
19610;DHT22;9952;47.122;-1.638;2022-08-05T08:55:20;21.80;99.90
19610;DHT22;9952;47.122;-1.638;2022-08-05T09:00:02;22.20;99.90
19610;DHT22;9952;47.122;-1.638;2022-08-05T09:04:44;22.50;99.90
19610;DHT22;9952;47.122;-1.638;2022-08-05T09:09:26;22.30;99.90
19610;DHT22;9952;47.122;-1.638;2022-08-05T09:14:07;22.90;99.90
19610;DHT22;9952;47.122;-1.638;2022-08-05T09:18:48;23.20;99.90
19610;DHT22;9952;47.122;-1.638;2022-08-05T09:23:29;23.20;99.90
19610;DHT22;9952;47.122;-1.638;2022-08-05T09:28:24;22.90;99.90
19610;DHT22;9952;47.122;-1.638;2022-08-05T09:33:07;22.80;99.90
19610;DHT22;9952;47.122;-1.638;2022-08-05T09:37:50;22.80;99.90
19610;DHT22;9952;47.122;-1.638;2022-08-05T09:42:40;22.70;99.90
19610;DHT22;9952;47.122;-1.638;2022-08-05T09:47:23;22.90;99.90
19610;DHT22;9952;47.122;-1.638;2022-08-05T09:52:21;22.80;99.90
19610;DHT22;9952;47.122;-1.638;2022-08-05T09:57:02;23.20;99.90
19610;DHT22;9952;47.122;-1.638;2022-08-05T10:01:43;23.20;99.90
19610;DHT22;9952;47.122;-1.638;2022-08-05T10:06:26;23.30;99.90
19610;DHT22;9952;47.122;-1.638;2022-08-05T10:11:15;23.40;99.90
19610;DHT22;9952;47.122;-1.638;2022-08-05T10:15:56;23.40;99.90
19610;DHT22;9952;47.122;-1.638;2022-08-05T10:20:47;23.70;99.90
19610;DHT22;9952;47.122;-1.638;2022-08-05T10:25:27;23.80;99.90
19610;DHT22;9952;47.122;-1.638;2022-08-05T10:30:09;23.80;99.90
19610;DHT22;9952;47.122;-1.638;2022-08-05T10:34:50;23.90;99.90
19610;DHT22;9952;47.122;-1.638;2022-08-05T10:39:34;24.10;99.90
19610;DHT22;9952;47.122;-1.638;2022-08-05T10:44:18;24.40;99.90
19610;DHT22;9952;47.122;-1.638;2022-08-05T10:49:06;24.50;99.90
19610;DHT22;9952;47.122;-1.638;2022-08-05T10:53:56;24.60;99.50
19610;DHT22;9952;47.122;-1.638;2022-08-05T11:03:31;24.60;99.80
19610;DHT22;9952;47.122;-1.638;2022-08-05T11:08:12;24.80;98.60
19610;DHT22;9952;47.122;-1.638;2022-08-05T11:12:53;24.90;98.70
19610;DHT22;9952;47.122;-1.638;2022-08-05T11:17:36;24.80;97.80
19610;DHT22;9952;47.122;-1.638;2022-08-05T11:22:44;25.00;95.70
19610;DHT22;9952;47.122;-1.638;2022-08-05T11:27:31;25.10;95.30
19610;DHT22;9952;47.122;-1.638;2022-08-05T11:32:26;25.10;94.50
19610;DHT22;9952;47.122;-1.638;2022-08-05T11:37:07;25.10;94.00
19610;DHT22;9952;47.122;-1.638;2022-08-05T11:41:50;25.40;92.80
19610;DHT22;9952;47.122;-1.638;2022-08-05T11:46:40;25.50;88.50
19610;DHT22;9952;47.122;-1.638;2022-08-05T11:51:21;25.70;83.20
19610;DHT22;9952;47.122;-1.638;2022-08-05T11:56:03;25.70;80.80
19610;DHT22;9952;47.122;-1.638;2022-08-05T12:00:43;25.90;78.90
19610;DHT22;9952;47.122;-1.638;2022-08-05T12:05:26;25.80;79.40
19610;DHT22;9952;47.122;-1.638;2022-08-05T12:10:10;25.80;81.40
19610;DHT22;9952;47.122;-1.638;2022-08-05T12:14:52;25.80;75.60
19610;DHT22;9952;47.122;-1.638;2022-08-05T12:19:41;26.00;72.30
19610;DHT22;9952;47.122;-1.638;2022-08-05T12:24:22;26.10;74.70
19610;DHT22;9952;47.122;-1.638;2022-08-05T12:29:05;26.30;73.70
19610;DHT22;9952;47.122;-1.638;2022-08-05T12:33:46;26.70;75.00
19610;DHT22;9952;47.122;-1.638;2022-08-05T12:38:27;26.60;74.80
19610;DHT22;9952;47.122;-1.638;2022-08-05T12:43:08;26.40;74.50
19610;DHT22;9952;47.122;-1.638;2022-08-05T12:47:49;26.50;74.80
19610;DHT22;9952;47.122;-1.638;2022-08-05T12:52:30;26.70;75.00
19610;DHT22;9952;47.122;-1.638;2022-08-05T12:57:11;27.00;70.30
19610;DHT22;9952;47.122;-1.638;2022-08-05T13:02:06;27.00;70.30
19610;DHT22;9952;47.122;-1.638;2022-08-05T13:06:47;26.80;72.80
19610;DHT22;9952;47.122;-1.638;2022-08-05T13:11:28;27.00;72.00
19610;DHT22;9952;47.122;-1.638;2022-08-05T13:16:12;27.10;71.20
19610;DHT22;9952;47.122;-1.638;2022-08-05T13:20:54;26.90;69.90
19610;DHT22;9952;47.122;-1.638;2022-08-05T13:25:35;26.90;70.30
19610;DHT22;9952;47.122;-1.638;2022-08-05T13:30:17;26.80;70.20
19610;DHT22;9952;47.122;-1.638;2022-08-05T13:34:59;27.10;67.40
19610;DHT22;9952;47.122;-1.638;2022-08-05T13:39:40;27.20;66.40
19610;DHT22;9952;47.122;-1.638;2022-08-05T13:44:20;27.40;68.50
19610;DHT22;9952;47.122;-1.638;2022-08-05T13:49:01;27.30;68.80
19610;DHT22;9952;47.122;-1.638;2022-08-05T13:53:42;27.20;67.20
19610;DHT22;9952;47.122;-1.638;2022-08-05T13:58:23;27.20;67.90
19610;DHT22;9952;47.122;-1.638;2022-08-05T14:03:04;27.30;68.40
19610;DHT22;9952;47.122;-1.638;2022-08-05T14:07:44;27.20;69.60
19610;DHT22;9952;47.122;-1.638;2022-08-05T14:12:27;27.30;70.60
19610;DHT22;9952;47.122;-1.638;2022-08-05T14:17:07;27.30;72.10
19610;DHT22;9952;47.122;-1.638;2022-08-05T14:21:48;27.20;71.50
19610;DHT22;9952;47.122;-1.638;2022-08-05T14:26:29;27.40;70.00
19610;DHT22;9952;47.122;-1.638;2022-08-05T14:31:10;27.40;69.30
19610;DHT22;9952;47.122;-1.638;2022-08-05T14:35:51;27.50;69.50
19610;DHT22;9952;47.122;-1.638;2022-08-05T14:40:32;27.60;69.50
19610;DHT22;9952;47.122;-1.638;2022-08-05T14:45:12;27.50;68.60
19610;DHT22;9952;47.122;-1.638;2022-08-05T14:49:53;27.40;70.00
19610;DHT22;9952;47.122;-1.638;2022-08-05T14:54:34;27.40;68.60
19610;DHT22;9952;47.122;-1.638;2022-08-05T14:59:15;27.30;71.00
19610;DHT22;9952;47.122;-1.638;2022-08-05T15:03:56;27.30;71.20
19610;DHT22;9952;47.122;-1.638;2022-08-05T15:08:37;27.40;71.40
19610;DHT22;9952;47.122;-1.638;2022-08-05T15:13:18;27.30;70.90
19610;DHT22;9952;47.122;-1.638;2022-08-05T15:17:58;27.30;71.90
19610;DHT22;9952;47.122;-1.638;2022-08-05T15:22:39;27.30;71.80
19610;DHT22;9952;47.122;-1.638;2022-08-05T15:27:20;27.30;71.00
19610;DHT22;9952;47.122;-1.638;2022-08-05T15:32:01;27.30;71.30
19610;DHT22;9952;47.122;-1.638;2022-08-05T15:36:41;27.50;71.80
19610;DHT22;9952;47.122;-1.638;2022-08-05T15:41:22;27.40;69.70
19610;DHT22;9952;47.122;-1.638;2022-08-05T15:46:05;27.40;70.70
19610;DHT22;9952;47.122;-1.638;2022-08-05T15:50:46;27.50;69.20
19610;DHT22;9952;47.122;-1.638;2022-08-05T15:55:27;27.40;69.90
19610;DHT22;9952;47.122;-1.638;2022-08-05T16:00:09;27.30;70.60
19610;DHT22;9952;47.122;-1.638;2022-08-05T16:04:50;27.20;70.60
19610;DHT22;9952;47.122;-1.638;2022-08-05T16:09:32;27.20;70.90
19610;DHT22;9952;47.122;-1.638;2022-08-05T16:14:13;27.20;71.80
19610;DHT22;9952;47.122;-1.638;2022-08-05T16:18:53;27.10;72.10
19610;DHT22;9952;47.122;-1.638;2022-08-05T16:23:34;27.10;73.00
19610;DHT22;9952;47.122;-1.638;2022-08-05T16:28:15;27.10;72.60
19610;DHT22;9952;47.122;-1.638;2022-08-05T16:32:57;27.10;72.30
19610;DHT22;9952;47.122;-1.638;2022-08-05T16:37:38;27.00;72.80
19610;DHT22;9952;47.122;-1.638;2022-08-05T16:42:19;26.90;72.70
19610;DHT22;9952;47.122;-1.638;2022-08-05T16:47:00;26.80;72.90
19610;DHT22;9952;47.122;-1.638;2022-08-05T16:51:42;26.70;72.20
19610;DHT22;9952;47.122;-1.638;2022-08-05T16:56:25;26.60;72.30
19610;DHT22;9952;47.122;-1.638;2022-08-05T17:01:06;26.60;71.80
19610;DHT22;9952;47.122;-1.638;2022-08-05T17:05:47;26.50;72.60
19610;DHT22;9952;47.122;-1.638;2022-08-05T17:10:28;26.40;72.80
19610;DHT22;9952;47.122;-1.638;2022-08-05T17:15:09;26.40;71.60
19610;DHT22;9952;47.122;-1.638;2022-08-05T17:19:50;26.30;71.20
19610;DHT22;9952;47.122;-1.638;2022-08-05T17:24:31;26.30;72.00
19610;DHT22;9952;47.122;-1.638;2022-08-05T17:29:12;26.30;71.00
19610;DHT22;9952;47.122;-1.638;2022-08-05T17:33:53;26.20;70.90
19610;DHT22;9952;47.122;-1.638;2022-08-05T17:38:35;26.10;69.90
19610;DHT22;9952;47.122;-1.638;2022-08-05T17:43:15;26.00;69.80
19610;DHT22;9952;47.122;-1.638;2022-08-05T17:47:57;25.90;69.50
19610;DHT22;9952;47.122;-1.638;2022-08-05T17:52:38;25.80;69.80
19610;DHT22;9952;47.122;-1.638;2022-08-05T17:57:18;25.80;69.30
19610;DHT22;9952;47.122;-1.638;2022-08-05T18:01:59;25.60;69.30
19610;DHT22;9952;47.122;-1.638;2022-08-05T18:06:42;25.60;71.10
19610;DHT22;9952;47.122;-1.638;2022-08-05T18:11:22;25.30;76.40
19610;DHT22;9952;47.122;-1.638;2022-08-05T18:16:03;25.10;78.10
19610;DHT22;9952;47.122;-1.638;2022-08-05T18:20:44;24.90;79.40
19610;DHT22;9952;47.122;-1.638;2022-08-05T18:25:25;24.70;80.20
19610;DHT22;9952;47.122;-1.638;2022-08-05T18:30:07;24.60;80.70
19610;DHT22;9952;47.122;-1.638;2022-08-05T18:34:48;24.40;81.70
19610;DHT22;9952;47.122;-1.638;2022-08-05T18:39:28;24.20;82.40
19610;DHT22;9952;47.122;-1.638;2022-08-05T18:44:10;24.10;83.40
19610;DHT22;9952;47.122;-1.638;2022-08-05T18:48:50;23.80;84.00
19610;DHT22;9952;47.122;-1.638;2022-08-05T18:53:32;23.60;84.90
19610;DHT22;9952;47.122;-1.638;2022-08-05T18:58:13;23.50;86.30
19610;DHT22;9952;47.122;-1.638;2022-08-05T19:02:53;23.40;87.20
19610;DHT22;9952;47.122;-1.638;2022-08-05T19:07:34;23.30;87.30
19610;DHT22;9952;47.122;-1.638;2022-08-05T19:12:15;23.10;87.80
19610;DHT22;9952;47.122;-1.638;2022-08-05T19:16:56;23.00;88.50
19610;DHT22;9952;47.122;-1.638;2022-08-05T19:21:37;22.80;90.00
19610;DHT22;9952;47.122;-1.638;2022-08-05T19:26:18;22.60;90.30
19610;DHT22;9952;47.122;-1.638;2022-08-05T19:30:59;22.50;90.50
19610;DHT22;9952;47.122;-1.638;2022-08-05T19:35:40;22.40;90.90
19610;DHT22;9952;47.122;-1.638;2022-08-05T19:40:21;22.30;91.10
19610;DHT22;9952;47.122;-1.638;2022-08-05T19:45:02;22.10;91.70
19610;DHT22;9952;47.122;-1.638;2022-08-05T19:49:44;22.10;91.80
19610;DHT22;9952;47.122;-1.638;2022-08-05T19:54:26;21.90;92.40
19610;DHT22;9952;47.122;-1.638;2022-08-05T19:59:07;21.80;92.70
19610;DHT22;9952;47.122;-1.638;2022-08-05T20:03:50;21.70;93.30
19610;DHT22;9952;47.122;-1.638;2022-08-05T20:08:31;21.60;94.10
19610;DHT22;9952;47.122;-1.638;2022-08-05T20:13:13;21.50;94.50
19610;DHT22;9952;47.122;-1.638;2022-08-05T20:17:54;21.30;95.40
19610;DHT22;9952;47.122;-1.638;2022-08-05T20:22:35;21.20;96.30
19610;DHT22;9952;47.122;-1.638;2022-08-05T20:27:15;21.20;96.70
19610;DHT22;9952;47.122;-1.638;2022-08-05T20:31:56;21.10;97.00
19610;DHT22;9952;47.122;-1.638;2022-08-05T20:36:37;21.10;97.40
19610;DHT22;9952;47.122;-1.638;2022-08-05T20:41:19;20.90;97.90
19610;DHT22;9952;47.122;-1.638;2022-08-05T20:46:00;20.90;98.00
19610;DHT22;9952;47.122;-1.638;2022-08-05T20:50:41;20.90;98.30
19610;DHT22;9952;47.122;-1.638;2022-08-05T20:55:21;20.70;98.60
19610;DHT22;9952;47.122;-1.638;2022-08-05T21:00:07;20.60;99.50
19610;DHT22;9952;47.122;-1.638;2022-08-05T21:04:48;20.60;99.70
19610;DHT22;9952;47.122;-1.638;2022-08-05T21:09:29;20.50;99.90
19610;DHT22;9952;47.122;-1.638;2022-08-05T21:14:10;20.40;99.90
19610;DHT22;9952;47.122;-1.638;2022-08-05T21:18:51;20.30;99.90
19610;DHT22;9952;47.122;-1.638;2022-08-05T21:23:32;20.30;99.90
19610;DHT22;9952;47.122;-1.638;2022-08-05T21:28:13;20.30;99.90
19610;DHT22;9952;47.122;-1.638;2022-08-05T21:32:53;20.20;99.90
19610;DHT22;9952;47.122;-1.638;2022-08-05T21:37:34;20.20;99.90
19610;DHT22;9952;47.122;-1.638;2022-08-05T21:42:15;20.00;99.90
19610;DHT22;9952;47.122;-1.638;2022-08-05T21:46:56;20.00;99.90
19610;DHT22;9952;47.122;-1.638;2022-08-05T21:51:37;19.90;99.90
19610;DHT22;9952;47.122;-1.638;2022-08-05T21:56:18;19.80;99.90
19610;DHT22;9952;47.122;-1.638;2022-08-05T22:00:58;19.70;99.90
19610;DHT22;9952;47.122;-1.638;2022-08-05T22:05:40;19.60;99.90
19610;DHT22;9952;47.122;-1.638;2022-08-05T22:10:21;19.60;99.90
19610;DHT22;9952;47.122;-1.638;2022-08-05T22:15:02;19.50;99.90
19610;DHT22;9952;47.122;-1.638;2022-08-05T22:19:43;19.40;99.90
19610;DHT22;9952;47.122;-1.638;2022-08-05T22:24:24;19.40;99.90
19610;DHT22;9952;47.122;-1.638;2022-08-05T22:29:24;19.20;99.90
19610;DHT22;9952;47.122;-1.638;2022-08-05T22:34:04;19.10;99.90
19610;DHT22;9952;47.122;-1.638;2022-08-05T22:38:45;19.10;99.90
19610;DHT22;9952;47.122;-1.638;2022-08-05T22:43:26;19.10;99.90
19610;DHT22;9952;47.122;-1.638;2022-08-05T22:48:07;19.00;99.90
19610;DHT22;9952;47.122;-1.638;2022-08-05T22:52:49;18.90;99.90
19610;DHT22;9952;47.122;-1.638;2022-08-05T22:57:30;18.90;99.90
19610;DHT22;9952;47.122;-1.638;2022-08-05T23:02:11;18.90;99.90
19610;DHT22;9952;47.122;-1.638;2022-08-05T23:06:53;18.70;99.90
19610;DHT22;9952;47.122;-1.638;2022-08-05T23:11:33;18.70;99.90
19610;DHT22;9952;47.122;-1.638;2022-08-05T23:16:16;18.70;99.90
19610;DHT22;9952;47.122;-1.638;2022-08-05T23:20:57;18.60;99.90
19610;DHT22;9952;47.122;-1.638;2022-08-05T23:25:38;18.60;99.90
19610;DHT22;9952;47.122;-1.638;2022-08-05T23:30:20;18.50;99.90
19610;DHT22;9952;47.122;-1.638;2022-08-05T23:35:01;18.40;99.90
19610;DHT22;9952;47.122;-1.638;2022-08-05T23:39:42;18.40;99.90
19610;DHT22;9952;47.122;-1.638;2022-08-05T23:44:22;18.40;99.90
19610;DHT22;9952;47.122;-1.638;2022-08-05T23:49:03;18.30;99.90
19610;DHT22;9952;47.122;-1.638;2022-08-05T23:53:44;18.20;99.90
19610;DHT22;9952;47.122;-1.638;2022-08-05T23:58:25;18.10;99.90
